Aviation Digital Data Service (ADDS)

Output produced by METARs form (2321 UTC 23 May 2022)
found at http://www.aviationweather.gov/metar/data/
 
RPLC 232300Z 19002KT 9000 FEW020 BKN300 27/23 Q1012 NOSIG RMK A2988
TAF RPLC 232300Z 2400/2506 18006KT 9999 SCT020 BKN300 TX34/2406Z TN24/2421Z 
     TEMPO 2400/2406 14008KT 7000 FEW020 BKN300
       
RPVD 232100Z 25004KT 9999 FEW015 26/23 Q1010 RMK A2983
TAF RPVD 232300Z 2400/2424 07008KT 9999 FEW015 SCT220 
     TEMPO 2403/2409 FEW014CB SCT015 BKN220
       
RPMD 232300Z 31003KT 270V340 9999 VCSH FEW015 BKN090 BKN260 27/26 Q1012 RMK A2988 VCSH S-SW
TAF RPMD 232300Z 2400/2424 36006KT 9999 FEW016 SCT090 BKN260 
     TEMPO 2400/2406 -SHRA FEW015CB SCT016 BKN090
       
RPLI 232300Z 08005KT 9999 FEW017CB FEW018TCU BKN290 26/24 Q1011 NOSIG RMK A2985 CB W-NW, TCU SW
TAF RPLI 232300Z 2400/2424 25008KT 9999 FEW018 SCT090 
     TEMPO 2400/2406 15006KT -SHRA SCT018 BKN090 
     TEMPO 2406/2412 26015KT -TSRA FEW017CB SCT018 BKN080 
     BECMG 2415/2417 13004KT
       
RPVM 232300Z VRB01KT 9999 SCT018CB BKN100 28/24 Q1013 RMK A2991 CB N/NE/SE
TAF RPVM 232300Z 2400/2506 13004KT 9999 FEW020 BKN300 
     TEMPO 2400/2406 07007KT -SHRA FEW018CB BKN300 
     TEMPO 2406/2412 FEW018CB BKN300
       
RPLL 232300Z VRB01KT 9999 FEW025 SCT300 29/26 Q1011 NOSIG RMK A2985
TAF RPLL 232300Z 2400/2506 12006KT 9999 FEW025 SCT100 TX34/2405Z TN27/2421Z 
     TEMPO 2400/2404 VRB06KT 
     BECMG 2405/2407 24007KT FEW023 BKN090 
     TEMPO 2407/2413 25012KT -SHRA FEW022CB SCT023 BKN090
       
RPVP 232300Z 27006KT 9999 FEW019 BKN080 25/24 Q1011 RMK A2985
TAF RPVP 232300Z 2400/2424 18007KT 9999 FEW019 SCT250 
     TEMPO 2400/2406 11008KT SCT019 BKN080
       
RPLB 232300Z 03004KT 360V080 9999 FEW016TCU SCT018 BKN300 27/24 Q1012 NOSIG RMK A2988 TCU SW-W
TAF RPLB 232300Z 2400/2424 22007KT 9999 FEW020 SCT080 BKN300 TX31/2405Z
TN24/2420Z 
     TEMPO 2400/2406 20011KT 8000 -TSRA FEW016CB SCT018 OVC080
       
TAF RPMR 232300Z 2400/2424 03006KT 9999 FEW018 SCT080 BKN250 
     TEMPO 2402/2408 16012KT FEW017CB BKN080 
     BECMG 2412/2414 30004KT
       
RPMZ 232300Z 06003KT 9999 FEW016CB FEW017 SCT090 27/24 Q1012 RMK A2988 CB SE
TAF RPMZ 232300Z 2400/2424 08005KT 9999 FEW017 SCT090 BKN300 
     TEMPO 2400/2406 FEW016CB BKN090